MUHG/HOG METAR and TAF weather

Enter ICAO airport designator
Station Type Date Time Source
MUHG METAR 2020/07/12 17:50 UTC NOAA

MUHG 121750Z VRB04KT 9000 SCT048TCU 33/22 Q1016


Station Type Date Time Source
MUHG Decoded METAR 2020/07/12 17:50 UTC NOAA

Holguin Civ / Mil , Cuba (MUHG) 20-47N 076-19W
Jul 12, 2020 - 01:50 PM EDT / 2020.07.12 1750 UTC
Wind: Variable at 5 MPH (4 KT):0
Visibility: 5 mile(s):0
Sky conditions: partly cloudy
Weather: Towering cumulus clouds observed
Temperature: 91 F (33 C)
Heat index: 97.5 F (36.4 C):1
Dew Point: 71 F (22 C)
Relative Humidity: 52%
Pressure (altimeter): 30.00 in. Hg (1016 hPa)
ob: MUHG 121750Z VRB04KT 9000 SCT048TCU 33/22 Q1016
cycle: 18

Station Type Date Time Source
MUHG TAF 2020/07/12 18:03 UTC NOAA

TAF MUHG 121700Z 1218/1318 06010KT 9000 SCT020
TEMPO 1218/1224 VRB12KT 4000 TSRA SCT018CB BKN020
BECMG 1301/1303 VRB03KT

Example: see airport list